Time;durP1;ratioP1;P1;durP2;ratioP2;P2;SDS_P1;SDS_P2;PMS_P1;PMS_P2;Temp;Humidity;BMP_temperature;BMP_pressure;BME280_temperature;BME280_humidity;BME280_pressure;Samples;Min_cycle;Max_cycle;Signal;HPM_P1;HPM_P2
2022/08/03 00:01:53;;;;;;;7.57;3.38;;;25.40;99.90;;;;;;4904532;29;20028;-91
2022/08/03 00:04:32;;;;;;;6.35;3.38;;;25.30;99.90;;;;;;4904579;29;20370;-93
2022/08/03 00:07:02;;;;;;;9.50;3.72;;;25.30;99.90;;;;;;4909029;29;20031;-92
2022/08/03 00:09:30;;;;;;;6.47;3.25;;;25.30;99.90;;;;;;4921595;29;20023;-91
2022/08/03 00:11:56;;;;;;;14.07;3.78;;;25.30;99.90;;;;;;4904927;29;20032;-91
2022/08/03 00:14:23;;;;;;;10.02;3.67;;;25.30;99.90;;;;;;4904913;29;20028;-92
2022/08/03 00:16:53;;;;;;;7.22;3.50;;;25.30;99.90;;;;;;4904469;29;20071;-91
2022/08/03 00:19:19;;;;;;;8.48;3.45;;;25.20;99.90;;;;;;4904540;29;20040;-91
2022/08/03 00:21:46;;;;;;;5.88;3.45;;;25.20;99.90;;;;;;4906755;29;20114;-91
2022/08/03 00:24:12;;;;;;;8.25;3.80;;;25.10;99.90;;;;;;4908363;29;20027;-91
2022/08/03 00:26:39;;;;;;;7.75;3.55;;;25.10;99.90;;;;;;4908373;29;20024;-90
2022/08/03 00:29:06;;;;;;;8.73;3.20;;;25.10;99.90;;;;;;4908339;29;20035;-90
2022/08/03 00:31:32;;;;;;;3.17;2.88;;;25.10;99.90;;;;;;4908375;29;20028;-91
2022/08/03 00:33:59;;;;;;;8.63;3.33;;;25.10;99.90;;;;;;4908755;29;20500;-91
2022/08/03 00:36:29;;;;;;;6.88;3.40;;;25.10;99.90;;;;;;4908340;29;20552;-93
2022/08/03 00:38:56;;;;;;;7.55;3.40;;;25.10;99.90;;;;;;4908125;29;20047;-91
2022/08/03 00:41:22;;;;;;;7.55;3.92;;;25.10;99.90;;;;;;4907943;29;20025;-92
2022/08/03 00:43:48;;;;;;;6.50;3.60;;;25.10;99.90;;;;;;4907741;29;20047;-93
2022/08/03 00:46:21;;;;;;;8.25;3.20;;;25.00;99.90;;;;;;4907986;29;20451;-93
2022/08/03 00:48:49;;;;;;;8.02;3.53;;;25.10;99.90;;;;;;4910735;29;20028;-93
2022/08/03 00:51:17;;;;;;;11.20;3.35;;;25.00;99.90;;;;;;4908598;29;20024;-90
2022/08/03 00:53:44;;;;;;;6.05;3.47;;;25.00;99.90;;;;;;4907893;29;20489;-92
2022/08/03 00:56:17;;;;;;;7.10;3.58;;;25.00;99.90;;;;;;4907595;29;20031;-90
2022/08/03 00:58:46;;;;;;;6.93;3.70;;;25.00;99.90;;;;;;4908647;29;20508;-92
2022/08/03 01:01:13;;;;;;;6.85;3.40;;;25.00;99.90;;;;;;4907712;29;20042;-92
2022/08/03 01:03:41;;;;;;;6.18;4.00;;;25.00;99.90;;;;;;4907641;29;20027;-91
2022/08/03 01:06:19;;;;;;;7.22;3.80;;;25.00;99.90;;;;;;4907609;29;20122;-92
2022/08/03 01:08:49;;;;;;;8.15;3.45;;;25.00;99.90;;;;;;4907407;29;20489;-92
2022/08/03 01:11:22;;;;;;;6.18;3.53;;;25.00;99.90;;;;;;4907538;29;20047;-92
2022/08/03 01:14:17;;;;;;;8.95;3.42;;;25.00;99.90;;;;;;4907552;29;20050;-93
2022/08/03 01:17:00;;;;;;;6.45;3.42;;;25.00;99.90;;;;;;4907473;29;20028;-91
2022/08/03 01:20:00;;;;;;;5.45;3.13;;;25.00;99.90;;;;;;4907187;29;20050;-93
2022/08/03 01:23:05;;;;;;;6.28;3.78;;;25.00;99.90;;;;;;4907294;29;20027;-93
2022/08/03 01:25:55;;;;;;;6.90;3.70;;;24.90;99.90;;;;;;4907715;29;20036;-91
2022/08/03 01:28:22;;;;;;;6.60;3.83;;;24.90;99.90;;;;;;4907704;29;20043;-91
2022/08/03 01:30:57;;;;;;;8.82;3.90;;;24.80;99.90;;;;;;4907247;29;20024;-91
2022/08/03 01:33:34;;;;;;;6.25;3.42;;;24.70;99.90;;;;;;4906565;29;20035;-93
2022/08/03 01:36:11;;;;;;;8.20;3.83;;;24.70;99.90;;;;;;4907020;29;20032;-92
2022/08/03 01:39:00;;;;;;;6.35;3.17;;;24.70;99.90;;;;;;4909791;29;20043;-91
2022/08/03 01:41:43;;;;;;;7.63;3.88;;;24.60;99.90;;;;;;4907404;29;20042;-93
2022/08/03 01:44:12;;;;;;;7.20;3.83;;;24.60;99.90;;;;;;4906867;29;20043;-92
2022/08/03 01:46:39;;;;;;;7.40;4.07;;;24.60;99.90;;;;;;4907096;29;20555;-91
2022/08/03 01:49:12;;;;;;;7.82;3.38;;;24.50;99.90;;;;;;4906720;29;20118;-90
2022/08/03 01:51:42;;;;;;;6.03;3.20;;;24.60;99.90;;;;;;4907326;29;20132;-92
2022/08/03 01:54:12;;;;;;;8.15;3.72;;;24.60;99.90;;;;;;4906882;29;20034;-92
2022/08/03 01:56:41;;;;;;;6.28;3.83;;;24.60;99.90;;;;;;4906839;29;20481;-92
2022/08/03 01:59:10;;;;;;;5.72;3.47;;;24.60;99.90;;;;;;4906907;29;20102;-92
2022/08/03 02:01:39;;;;;;;8.25;3.80;;;24.50;99.90;;;;;;4906911;29;20362;-92
2022/08/03 02:04:10;;;;;;;5.40;3.50;;;24.50;99.90;;;;;;4907227;29;20081;-91
2022/08/03 02:06:38;;;;;;;7.93;3.85;;;24.50;99.90;;;;;;4907099;29;20032;-91
2022/08/03 02:09:06;;;;;;;7.65;3.40;;;24.50;99.90;;;;;;4907197;29;20032;-92
2022/08/03 02:11:35;;;;;;;8.60;3.92;;;24.50;99.90;;;;;;4884141;29;20127;-91
2022/08/03 02:14:06;;;;;;;8.75;3.78;;;24.50;99.90;;;;;;4868446;29;20041;-92
2022/08/03 02:16:35;;;;;;;11.07;3.63;;;24.50;99.90;;;;;;4883914;29;20510;-93
2022/08/03 02:19:05;;;;;;;12.20;4.28;;;24.40;99.90;;;;;;4871003;29;20044;-91
2022/08/03 02:21:35;;;;;;;8.18;3.55;;;24.50;99.90;;;;;;4886106;29;20044;-92
2022/08/03 02:24:03;;;;;;;5.15;3.55;;;24.50;99.90;;;;;;4887737;29;20033;-93
2022/08/03 02:26:31;;;;;;;8.15;3.42;;;24.50;99.90;;;;;;4868327;29;20503;-92
2022/08/03 02:29:06;;;;;;;5.78;4.00;;;24.60;99.90;;;;;;4883508;29;20055;-93
2022/08/03 02:31:37;;;;;;;9.10;3.67;;;24.70;99.90;;;;;;4883722;29;20033;-92
2022/08/03 02:34:11;;;;;;;5.20;3.30;;;24.70;99.90;;;;;;4868014;29;20293;-91
2022/08/03 02:36:41;;;;;;;9.40;3.70;;;24.70;99.90;;;;;;4883600;29;20036;-93
2022/08/03 02:39:19;;;;;;;8.70;3.90;;;24.70;99.90;;;;;;4883446;29;20101;-92
2022/08/03 02:42:11;;;;;;;5.60;3.58;;;24.70;99.90;;;;;;4890778;29;20040;-92
2022/08/03 02:44:47;;;;;;;9.40;3.60;;;24.70;99.90;;;;;;4863625;29;20048;-92
2022/08/03 02:47:20;;;;;;;6.97;3.80;;;24.70;99.90;;;;;;4850028;29;20045;-91
2022/08/03 02:49:50;;;;;;;7.88;3.90;;;24.70;99.90;;;;;;4867386;29;20041;-92
2022/08/03 02:52:18;;;;;;;6.32;3.90;;;24.70;99.90;;;;;;4864983;29;20069;-93
2022/08/03 02:54:53;;;;;;;9.35;4.05;;;24.70;99.90;;;;;;4864696;29;20092;-91
2022/08/03 02:57:22;;;;;;;9.32;3.90;;;24.70;99.90;;;;;;4865153;29;20037;-93
2022/08/03 02:59:50;;;;;;;6.68;3.85;;;24.80;99.90;;;;;;4865153;29;20412;-92
2022/08/03 03:02:18;;;;;;;10.35;4.30;;;24.70;99.90;;;;;;4864882;29;20128;-92
2022/08/03 03:04:46;;;;;;;8.95;4.20;;;24.80;99.90;;;;;;4864860;29;20398;-90
2022/08/03 03:07:14;;;;;;;6.82;3.92;;;24.70;99.90;;;;;;4865629;29;20086;-92
2022/08/03 03:09:51;;;;;;;9.52;4.30;;;24.70;99.90;;;;;;4864392;29;20041;-91
2022/08/03 03:12:20;;;;;;;6.88;4.10;;;24.70;99.90;;;;;;4864562;29;20557;-91
2022/08/03 03:14:47;;;;;;;8.43;3.88;;;24.70;99.90;;;;;;4870691;29;20043;-92
2022/08/03 03:17:17;;;;;;;8.75;4.13;;;24.70;99.90;;;;;;4876560;29;20073;-92
2022/08/03 03:19:52;;;;;;;9.43;4.00;;;24.60;99.90;;;;;;4867535;29;20073;-93
2022/08/03 03:22:21;;;;;;;10.27;3.78;;;24.60;99.90;;;;;;4899333;29;20035;-91
2022/08/03 03:24:50;;;;;;;6.78;3.95;;;24.60;99.90;;;;;;4905373;29;20568;-92
2022/08/03 03:27:21;;;;;;;9.32;4.80;;;24.50;99.90;;;;;;4905854;29;20031;-93
2022/08/03 03:29:49;;;;;;;10.77;4.55;;;24.50;99.90;;;;;;4906341;29;20067;-93
2022/08/03 03:32:15;;;;;;;8.35;4.93;;;24.50;99.90;;;;;;4906887;29;20028;-94
2022/08/03 03:34:44;;;;;;;10.65;4.63;;;24.50;99.90;;;;;;4907514;29;20035;-93
2022/08/03 03:37:11;;;;;;;10.18;4.43;;;24.50;99.90;;;;;;4907320;29;20023;-94
2022/08/03 03:39:37;;;;;;;10.13;4.65;;;24.40;99.90;;;;;;4907576;29;20050;-92
2022/08/03 03:42:04;;;;;;;7.07;4.80;;;24.30;99.90;;;;;;4907761;29;20027;-91
2022/08/03 03:44:31;;;;;;;9.60;4.75;;;24.30;99.90;;;;;;4907785;29;20070;-93
2022/08/03 03:46:58;;;;;;;9.27;4.80;;;24.30;99.90;;;;;;4905581;29;20163;-94
2022/08/03 04:34:10;;;;;;;14.45;5.65;;;25.20;99.90;;;;;;4917912;29;20414;-92
2022/08/03 04:41:35;;;;;;;;;;;;;;;;;;;;;
2022/08/03 05:04:21;;;;;;;;;;;;;;;;;;;;;
2022/08/03 05:10:02;;;;;;;10.75;4.03;;;30.50;99.90;;;;;;4773732;30;20369;-93
2022/08/03 05:13:12;;;;;;;14.55;4.05;;;31.00;99.90;;;;;;4760218;30;20120;-92
2022/08/03 05:18:58;;;;;;;18.25;4.10;;;31.60;99.90;;;;;;4707049;30;20408;-92
2022/08/03 05:21:49;;;;;;;11.65;3.55;;;31.70;99.90;;;;;;4710922;30;20048;-92
2022/08/03 05:24:24;;;;;;;8.52;3.78;;;32.00;99.90;;;;;;4706801;30;20460;-92
2022/08/03 05:30:48;;;;;;;12.43;4.18;;;31.80;99.90;;;;;;4668701;30;20046;-93
2022/08/03 06:04:08;;;;;;;9.95;3.80;;;33.60;99.90;;;;;;819623;23;20342;-91
2022/08/03 06:06:35;;;;;;;7.85;3.70;;;33.40;99.90;;;;;;4849602;29;20052;-93
2022/08/03 06:09:37;;;;;;;7.28;4.05;;;33.30;99.90;;;;;;4854241;29;20077;-92
2022/08/03 06:12:43;;;;;;;11.55;3.95;;;33.80;99.90;;;;;;4872761;29;20052;-94
2022/08/03 06:15:35;;;;;;;;;;;;;;;;;;;;;
2022/08/03 06:18:08;;;;;;;11.07;4.45;;;33.50;99.90;;;;;;4850861;29;20116;-92
2022/08/03 06:20:38;;;;;;;10.98;4.97;;;33.70;99.90;;;;;;4843659;29;20145;-94
2022/08/03 06:23:14;;;;;;;9.73;5.63;;;34.10;99.90;;;;;;4843769;29;20033;-93
2022/08/03 06:25:50;;;;;;;7.18;6.53;;;34.90;99.90;;;;;;4844193;29;20067;-92
2022/08/03 06:28:23;;;;;;;7.13;6.55;;;35.10;99.90;;;;;;4843858;29;20030;-93
2022/08/03 06:31:28;;;;;;;10.15;6.63;;;35.00;99.90;;;;;;4842674;29;20045;-93
2022/08/03 06:34:01;;;;;;;7.38;6.68;;;34.30;99.90;;;;;;4843542;29;20033;-92
2022/08/03 06:37:15;;;;;;;10.90;7.10;;;34.30;99.90;;;;;;4825318;29;20070;-93
2022/08/03 06:40:30;;;;;;;;;;;;;;;;;;;;;
2022/08/03 06:43:21;;;;;;;8.20;7.60;;;34.00;99.90;;;;;;4843520;29;20044;-89
2022/08/03 06:45:48;;;;;;;8.50;7.88;;;34.00;99.90;;;;;;4852835;29;20045;-90
2022/08/03 06:48:15;;;;;;;9.40;8.70;;;34.30;99.90;;;;;;4831734;29;20124;-89
2022/08/03 06:50:43;;;;;;;11.52;9.77;;;34.40;99.90;;;;;;4832089;29;20063;-89
2022/08/03 06:53:10;;;;;;;10.77;10.02;;;34.50;99.90;;;;;;4831997;29;20033;-89
2022/08/03 06:55:36;;;;;;;10.48;9.57;;;34.70;99.90;;;;;;4831774;29;20044;-89
2022/08/03 06:58:03;;;;;;;10.98;10.10;;;34.20;99.90;;;;;;4831798;29;20042;-89
2022/08/03 07:00:30;;;;;;;13.13;10.48;;;34.60;99.90;;;;;;4831534;29;20041;-89
2022/08/03 07:02:57;;;;;;;11.85;10.75;;;34.70;99.90;;;;;;4831215;29;20026;-90
2022/08/03 07:05:23;;;;;;;11.40;10.70;;;35.00;99.90;;;;;;4843297;29;20422;-90
2022/08/03 07:07:55;;;;;;;12.30;11.25;;;35.40;99.90;;;;;;4849666;29;20033;-90
2022/08/03 07:10:22;;;;;;;11.38;10.48;;;35.70;99.90;;;;;;4864280;29;20029;-90
2022/08/03 07:12:49;;;;;;;12.13;10.88;;;35.30;99.90;;;;;;4860480;29;20037;-89
2022/08/03 07:15:17;;;;;;;11.60;10.70;;;35.10;99.90;;;;;;4846244;29;20034;-89
2022/08/03 07:17:44;;;;;;;11.85;11.05;;;35.40;99.90;;;;;;4857983;29;20025;-89
2022/08/03 07:20:12;;;;;;;11.88;11.07;;;35.50;99.90;;;;;;4852423;29;20119;-90
2022/08/03 07:22:54;;;;;;;12.30;11.30;;;35.80;99.90;;;;;;4864725;29;20510;-89
2022/08/03 07:25:24;;;;;;;12.82;11.80;;;36.30;99.90;;;;;;4861354;29;20064;-90
2022/08/03 07:27:50;;;;;;;13.18;12.02;;;36.60;99.90;;;;;;4846719;29;20506;-89
2022/08/03 07:30:16;;;;;;;12.30;11.40;;;36.20;99.90;;;;;;4845495;29;20033;-89
2022/08/03 07:32:43;;;;;;;12.63;11.40;;;36.00;99.90;;;;;;4846004;29;20070;-91
2022/08/03 07:35:11;;;;;;;12.18;11.18;;;36.00;99.90;;;;;;4845946;29;20112;-91
2022/08/03 07:37:37;;;;;;;12.77;11.60;;;34.80;99.90;;;;;;4845778;29;20037;-91
2022/08/03 07:40:05;;;;;;;12.77;11.88;;;35.00;99.90;;;;;;4846260;29;20124;-90
2022/08/03 07:42:34;;;;;;;12.15;11.35;;;35.10;99.90;;;;;;4846098;29;20081;-89
2022/08/03 07:45:01;;;;;;;11.90;10.90;;;34.90;99.90;;;;;;4845807;29;20501;-90
2022/08/03 07:47:30;;;;;;;12.00;11.02;;;34.90;99.90;;;;;;4845813;29;20033;-91
2022/08/03 07:49:57;;;;;;;11.63;10.80;;;34.40;99.90;;;;;;4846035;29;20025;-90
2022/08/03 07:55:09;;;;;;;12.23;11.32;;;34.60;99.90;;;;;;4845665;29;20029;-92
2022/08/03 07:57:37;;;;;;;11.70;10.90;;;34.20;99.90;;;;;;4856087;29;20040;-91
2022/08/03 08:00:10;;;;;;;14.25;10.88;;;34.30;99.90;;;;;;4848751;29;20159;-90
2022/08/03 08:02:43;;;;;;;11.73;10.82;;;34.60;99.90;;;;;;4849463;29;20432;-89
2022/08/03 08:05:11;;;;;;;11.43;10.73;;;34.80;99.90;;;;;;4848661;29;20053;-91
2022/08/03 08:07:39;;;;;;;11.70;11.00;;;35.00;99.90;;;;;;4848542;29;20040;-91
2022/08/03 08:10:08;;;;;;;12.55;11.75;;;35.60;99.90;;;;;;4864255;29;20033;-91
2022/08/03 08:12:36;;;;;;;12.60;11.60;;;36.00;99.90;;;;;;4848803;29;20487;-90
2022/08/03 08:15:03;;;;;;;12.20;11.40;;;36.20;99.90;;;;;;4848217;29;20108;-89
2022/08/03 08:17:30;;;;;;;12.30;11.40;;;35.40;99.90;;;;;;4851661;29;20037;-90
2022/08/03 08:19:56;;;;;;;12.90;11.80;;;35.60;99.90;;;;;;4845480;29;20037;-89
2022/08/03 08:22:23;;;;;;;12.38;11.18;;;35.10;99.90;;;;;;4845369;29;20480;-89
2022/08/03 08:24:49;;;;;;;12.38;11.18;;;34.60;99.90;;;;;;4845126;29;20040;-89
2022/08/03 08:27:15;;;;;;;11.88;10.80;;;34.50;99.90;;;;;;4845462;29;20433;-90
2022/08/03 08:29:42;;;;;;;12.60;11.52;;;34.20;99.90;;;;;;4845571;29;20030;-90
2022/08/03 08:32:10;;;;;;;12.35;11.10;;;34.60;99.90;;;;;;4845400;29;20029;-90
2022/08/03 08:34:36;;;;;;;11.43;10.73;;;34.50;99.90;;;;;;4845290;29;20041;-92
2022/08/03 08:37:03;;;;;;;12.07;11.07;;;34.70;99.90;;;;;;4845283;29;20090;-90
2022/08/03 08:39:30;;;;;;;12.30;11.30;;;35.20;99.90;;;;;;4845177;29;20037;-90
2022/08/03 08:41:56;;;;;;;12.38;11.55;;;35.30;99.90;;;;;;4845225;29;20032;-90
2022/08/03 08:44:22;;;;;;;13.05;11.93;;;35.00;99.90;;;;;;4848642;29;20125;-93
2022/08/03 08:46:51;;;;;;;13.15;12.05;;;35.10;99.90;;;;;;4849032;29;20030;-89
2022/08/03 08:49:22;;;;;;;12.88;11.88;;;35.10;99.90;;;;;;4849704;29;20029;-90
2022/08/03 08:51:52;;;;;;;12.77;12.00;;;35.20;99.90;;;;;;4848982;29;20105;-91
2022/08/03 08:54:21;;;;;;;12.75;11.70;;;34.90;99.90;;;;;;4848918;29;20031;-90
2022/08/03 08:56:52;;;;;;;13.65;12.68;;;35.30;99.90;;;;;;4848688;29;20045;-91
2022/08/03 08:59:19;;;;;;;12.13;11.32;;;34.90;99.90;;;;;;4848719;29;20064;-91
2022/08/03 09:01:46;;;;;;;11.32;10.63;;;34.40;99.90;;;;;;4848771;29;20045;-91
2022/08/03 09:04:12;;;;;;;11.88;10.95;;;34.30;99.90;;;;;;4848465;29;20068;-90
2022/08/03 09:06:39;;;;;;;11.82;11.00;;;34.70;99.90;;;;;;4848762;29;20040;-90
2022/08/03 09:09:07;;;;;;;12.52;11.50;;;34.80;99.90;;;;;;4848713;29;20403;-90
2022/08/03 09:11:34;;;;;;;12.80;12.00;;;34.70;99.90;;;;;;4848500;29;20026;-91
2022/08/03 09:14:01;;;;;;;12.43;11.45;;;35.40;99.90;;;;;;4848452;29;20094;-90
2022/08/03 09:16:27;;;;;;;11.75;10.95;;;35.20;99.90;;;;;;4848257;29;20025;-90
2022/08/03 09:18:54;;;;;;;12.73;11.85;;;34.70;99.90;;;;;;4848199;29;20128;-91
2022/08/03 09:21:26;;;;;;;12.32;11.43;;;34.60;99.90;;;;;;4848415;29;20117;-89
2022/08/03 09:23:55;;;;;;;12.63;11.60;;;34.50;99.90;;;;;;4848469;29;20037;-90
2022/08/03 09:26:27;;;;;;;12.15;11.10;;;34.50;99.90;;;;;;4848223;29;20033;-90
2022/08/03 09:28:55;;;;;;;12.20;11.40;;;34.40;99.90;;;;;;4848136;29;20033;-91
2022/08/03 09:31:35;;;;;;;12.02;11.23;;;34.40;99.90;;;;;;4848195;29;20029;-89
2022/08/03 09:34:04;;;;;;;12.40;11.60;;;34.60;99.90;;;;;;4848185;29;20102;-90
2022/08/03 09:36:35;;;;;;;12.05;11.30;;;34.60;99.90;;;;;;4848082;29;20049;-90
2022/08/03 09:39:13;;;;;;;12.15;11.15;;;34.60;99.90;;;;;;4847720;29;20043;-90
2022/08/03 09:41:42;;;;;;;12.82;11.75;;;34.80;99.90;;;;;;4848340;29;20040;-91
2022/08/03 09:44:09;;;;;;;11.93;11.15;;;35.10;99.90;;;;;;4847929;29;20030;-89
2022/08/03 09:46:55;;;;;;;12.63;11.60;;;34.60;99.90;;;;;;4847992;29;20037;-89
2022/08/03 09:49:23;;;;;;;11.82;11.13;;;34.40;99.90;;;;;;4847803;29;20428;-89
2022/08/03 09:51:49;;;;;;;12.30;11.35;;;34.30;99.90;;;;;;4847957;29;20028;-91
2022/08/03 09:54:27;;;;;;;12.25;11.55;;;34.30;99.90;;;;;;4862630;29;20061;-91
2022/08/03 09:56:54;;;;;;;12.50;11.60;;;34.30;99.90;;;;;;4847734;29;20052;-88
2022/08/03 09:59:27;;;;;;;12.70;11.65;;;34.20;99.90;;;;;;4847637;29;20065;-89
2022/08/03 10:01:54;;;;;;;12.13;11.32;;;33.90;99.90;;;;;;4847515;29;20029;-90
2022/08/03 10:04:23;;;;;;;11.82;11.13;;;34.00;99.90;;;;;;4847619;29;20041;-91
2022/08/03 10:07:09;;;;;;;12.15;11.35;;;34.10;99.90;;;;;;4847532;29;20029;-91
2022/08/03 10:09:37;;;;;;;12.02;11.05;;;34.20;99.90;;;;;;4847688;29;20176;-91
2022/08/03 10:12:08;;;;;;;12.10;11.30;;;34.40;99.90;;;;;;4847756;29;20078;-89
2022/08/03 10:14:37;;;;;;;12.85;12.18;;;34.40;99.90;;;;;;4863429;29;20057;-89
2022/08/03 10:17:04;;;;;;;13.52;12.60;;;34.40;99.90;;;;;;4848133;29;20033;-90
2022/08/03 10:19:30;;;;;;;12.63;11.65;;;34.70;99.90;;;;;;4847346;29;20552;-89
2022/08/03 10:22:07;;;;;;;12.38;11.65;;;34.70;99.90;;;;;;4847336;29;20503;-89
2022/08/03 10:24:35;;;;;;;12.90;11.82;;;34.70;99.90;;;;;;4847482;29;20109;-92
2022/08/03 10:27:04;;;;;;;15.05;12.35;;;34.80;99.90;;;;;;4847294;29;20036;-90
2022/08/03 10:29:38;;;;;;;13.40;12.60;;;34.50;99.90;;;;;;4847309;29;20112;-89
2022/08/03 10:32:13;;;;;;;12.57;11.68;;;34.30;99.90;;;;;;4847445;29;20033;-90
2022/08/03 10:34:42;;;;;;;13.35;12.20;;;34.40;99.90;;;;;;4847071;29;20033;-91
2022/08/03 10:37:12;;;;;;;13.27;12.35;;;34.60;99.90;;;;;;4847138;29;20085;-89
2022/08/03 10:39:52;;;;;;;13.02;12.10;;;34.20;99.90;;;;;;4848435;29;20053;-89
2022/08/03 10:42:24;;;;;;;14.98;12.27;;;34.30;99.90;;;;;;4847241;29;20037;-91
2022/08/03 10:45:01;;;;;;;13.85;12.70;;;34.60;99.90;;;;;;4847471;29;20538;-89
2022/08/03 10:47:29;;;;;;;12.90;12.15;;;34.20;99.90;;;;;;4847003;29;20038;-91
2022/08/03 10:49:56;;;;;;;12.95;12.23;;;34.50;99.90;;;;;;4846899;29;20026;-91
2022/08/03 10:52:23;;;;;;;14.00;12.82;;;34.40;99.80;;;;;;4846631;29;20037;-91
2022/08/03 10:57:53;;;;;;;13.02;12.23;;;34.20;99.90;;;;;;4861866;29;20061;-91
2022/08/03 11:00:19;;;;;;;13.50;12.40;;;34.20;99.90;;;;;;4846655;29;20097;-91
2022/08/03 11:03:05;;;;;;;13.63;12.63;;;34.30;99.90;;;;;;4847289;29;20061;-90
2022/08/03 11:05:35;;;;;;;12.18;11.48;;;34.50;99.80;;;;;;4845882;29;20104;-92
2022/08/03 11:08:21;;;;;;;13.02;12.23;;;34.30;99.80;;;;;;4846585;29;20041;-91
2022/08/03 11:10:50;;;;;;;13.43;12.63;;;34.50;99.20;;;;;;4846339;29;20033;-91
2022/08/03 11:13:20;;;;;;;13.00;12.30;;;34.20;99.00;;;;;;4846265;29;20088;-92
2022/08/03 11:15:49;;;;;;;12.85;12.23;;;34.10;99.00;;;;;;4846395;29;20033;-92
2022/08/03 11:18:17;;;;;;;12.80;12.00;;;34.10;99.40;;;;;;4846383;29;20053;-92
2022/08/03 11:20:49;;;;;;;13.10;12.27;;;34.30;99.50;;;;;;4846269;29;20121;-92
2022/08/03 11:23:36;;;;;;;13.10;12.13;;;34.50;98.90;;;;;;4846208;29;20040;-90
2022/08/03 11:26:10;;;;;;;12.50;11.80;;;34.00;98.90;;;;;;4861785;29;20033;-90
2022/08/03 11:28:40;;;;;;;12.85;12.05;;;34.20;99.10;;;;;;4845983;29;20036;-91
2022/08/03 11:31:33;;;;;;;13.10;12.40;;;34.30;98.80;;;;;;4846050;29;20029;-90
2022/08/03 11:34:10;;;;;;;13.75;13.05;;;34.30;98.40;;;;;;4790751;29;20132;-91
2022/08/03 11:37:13;;;;;;;13.05;12.25;;;34.30;97.90;;;;;;4790824;29;20095;-92
2022/08/03 11:39:45;;;;;;;12.90;12.18;;;34.40;98.30;;;;;;4790681;29;20051;-91
2022/08/03 11:42:22;;;;;;;12.73;12.10;;;34.40;98.60;;;;;;4776411;29;20037;-91
2022/08/03 11:44:53;;;;;;;13.32;12.30;;;34.30;98.50;;;;;;4790843;29;20170;-92
2022/08/03 11:47:21;;;;;;;13.48;12.77;;;34.10;99.30;;;;;;4790641;29;20060;-93
2022/08/03 11:49:48;;;;;;;14.07;13.18;;;34.10;99.10;;;;;;4776558;29;20031;-90
2022/08/03 11:52:17;;;;;;;14.23;13.32;;;34.10;99.10;;;;;;4790932;29;20111;-91
2022/08/03 11:54:44;;;;;;;14.25;13.40;;;34.20;98.70;;;;;;4775600;29;20047;-90
2022/08/03 11:57:11;;;;;;;13.52;12.82;;;34.40;98.30;;;;;;4790426;29;20051;-89
2022/08/03 11:59:37;;;;;;;13.98;13.13;;;34.30;98.20;;;;;;4790540;29;20043;-90
2022/08/03 12:02:12;;;;;;;13.82;13.10;;;34.30;98.20;;;;;;4775717;29;20126;-90
2022/08/03 12:04:52;;;;;;;13.30;12.70;;;34.10;99.10;;;;;;4790756;29;20058;-89
2022/08/03 12:07:19;;;;;;;14.40;13.60;;;34.10;98.90;;;;;;4808067;29;20042;-92
2022/08/03 12:10:09;;;;;;;14.02;13.27;;;34.00;99.10;;;;;;4787321;29;20031;-90
2022/08/03 12:12:40;;;;;;;14.25;13.38;;;34.10;98.80;;;;;;4857735;29;20036;-92
2022/08/03 12:15:08;;;;;;;14.65;13.57;;;34.50;97.20;;;;;;4797721;29;20050;-91
2022/08/03 12:17:41;;;;;;;13.88;13.18;;;34.20;97.50;;;;;;4809591;29;20058;-93
2022/08/03 12:20:09;;;;;;;13.45;12.80;;;34.20;97.40;;;;;;4794607;29;20050;-91
2022/08/03 12:22:38;;;;;;;13.18;12.57;;;34.00;96.70;;;;;;4793210;29;20058;-90
2022/08/03 12:25:08;;;;;;;14.60;13.50;;;33.90;96.40;;;;;;4810646;29;20042;-91
2022/08/03 12:27:35;;;;;;;13.52;12.80;;;34.10;96.40;;;;;;4808239;29;20072;-91
2022/08/03 12:30:03;;;;;;;13.98;13.20;;;33.90;95.80;;;;;;4793780;29;20122;-91
2022/08/03 12:32:30;;;;;;;16.65;15.55;;;33.90;96.40;;;;;;4795834;29;20035;-93
2022/08/03 12:35:22;;;;;;;16.35;15.35;;;34.30;96.60;;;;;;4811645;29;20035;-90
2022/08/03 12:41:48;;;;;;;14.95;13.98;;;34.30;97.20;;;;;;4779459;30;20048;-92
2022/08/03 12:48:43;;;;;;;13.80;13.00;;;33.80;98.10;;;;;;4689976;30;20041;-92
2022/08/03 12:55:20;;;;;;;;;;;34.50;96.70;;;;;;4715565;30;20129;-92
2022/08/03 12:59:11;;;;;;;12.93;12.23;;;34.40;98.20;;;;;;4699539;30;19939;-91
2022/08/03 13:02:04;;;;;;;13.18;12.48;;;34.30;96.90;;;;;;4707451;30;20125;-90
2022/08/03 13:04:36;;;;;;;14.60;13.80;;;34.50;96.80;;;;;;4699855;30;20077;-91
2022/08/03 13:07:09;;;;;;;15.63;14.73;;;34.40;95.90;;;;;;4760342;30;20047;-91
2022/08/03 13:09:52;;;;;;;14.43;13.52;;;34.50;96.20;;;;;;4761262;30;20041;-90
2022/08/03 13:12:20;;;;;;;13.30;12.60;;;34.60;95.40;;;;;;4762019;30;20107;-93
2022/08/03 13:14:52;;;;;;;13.52;12.82;;;34.40;94.40;;;;;;4758956;30;20032;-89
2022/08/03 13:17:19;;;;;;;13.70;13.00;;;33.90;93.80;;;;;;4760728;30;20115;-92
2022/08/03 13:19:46;;;;;;;13.73;12.82;;;33.60;94.30;;;;;;4776330;30;20133;-90
2022/08/03 13:22:21;;;;;;;13.98;13.15;;;33.50;94.80;;;;;;4777553;30;20028;-90
2022/08/03 13:24:51;;;;;;;13.90;12.80;;;33.40;95.20;;;;;;4800514;29;20074;-89
2022/08/03 13:27:18;;;;;;;13.38;12.65;;;33.60;95.60;;;;;;4810839;29;20027;-91
2022/08/03 13:29:45;;;;;;;13.57;12.73;;;33.80;94.90;;;;;;4826260;29;20034;-90
2022/08/03 13:32:13;;;;;;;13.30;12.57;;;33.60;95.90;;;;;;4872486;29;20070;-89
2022/08/03 13:34:42;;;;;;;13.77;12.98;;;33.60;95.90;;;;;;4866277;29;20038;-90
2022/08/03 13:37:10;;;;;;;13.70;13.00;;;33.70;95.40;;;;;;4874247;29;20021;-91
2022/08/03 13:42:04;;;;;;;13.82;13.00;;;33.40;96.60;;;;;;4947821;23;20063;-89
2022/08/03 13:44:31;;;;;;;13.35;12.65;;;33.40;96.90;;;;;;4933167;29;20047;-92
2022/08/03 13:46:59;;;;;;;13.38;12.68;;;33.40;97.60;;;;;;4908051;29;20400;-93
2022/08/03 13:49:38;;;;;;;13.52;12.63;;;33.60;97.20;;;;;;4926328;29;20034;-89
2022/08/03 13:52:05;;;;;;;12.88;12.15;;;33.30;97.40;;;;;;4920751;29;20023;-90
2022/08/03 13:54:33;;;;;;;12.88;12.07;;;33.20;97.90;;;;;;4892855;29;20051;-89
2022/08/03 13:56:59;;;;;;;12.98;12.38;;;33.30;97.10;;;;;;4931877;29;20064;-89
2022/08/03 13:59:31;;;;;;;13.00;12.30;;;33.30;97.10;;;;;;4919673;29;20082;-91
2022/08/03 14:02:03;;;;;;;13.85;12.95;;;33.40;97.50;;;;;;4919860;29;20036;-93
2022/08/03 14:04:30;;;;;;;13.88;13.02;;;33.30;97.00;;;;;;4898282;29;20064;-91
2022/08/03 14:06:57;;;;;;;14.40;13.40;;;33.10;97.10;;;;;;4898091;29;20024;-93
2022/08/03 14:09:26;;;;;;;13.35;12.65;;;32.90;97.50;;;;;;4913780;29;20335;-92
2022/08/03 14:12:33;;;;;;;13.60;12.80;;;32.80;98.00;;;;;;4914817;29;20028;-93
2022/08/03 14:18:24;;;;;;;13.73;12.88;;;32.70;98.10;;;;;;4910099;23;20345;-92
2022/08/03 14:20:54;;;;;;;13.15;12.30;;;32.60;98.40;;;;;;4881937;29;20036;-92
2022/08/03 14:23:24;;;;;;;13.45;12.60;;;32.90;98.10;;;;;;4912471;29;20036;-92
2022/08/03 14:25:51;;;;;;;15.55;12.40;;;33.00;97.50;;;;;;4912321;29;20024;-92
2022/08/03 14:28:19;;;;;;;13.35;12.25;;;32.80;97.70;;;;;;4912388;29;20033;-92
2022/08/03 14:30:47;;;;;;;11.73;11.13;;;32.70;98.30;;;;;;4912119;29;20052;-91
2022/08/03 14:33:14;;;;;;;13.30;12.50;;;32.90;98.80;;;;;;4912399;29;20032;-92
2022/08/03 14:35:41;;;;;;;13.25;12.35;;;32.90;98.10;;;;;;4912435;29;20043;-93
2022/08/03 14:38:07;;;;;;;13.35;12.32;;;33.00;98.30;;;;;;4912333;29;20029;-94
2022/08/03 14:40:34;;;;;;;13.73;12.93;;;32.90;98.60;;;;;;4914211;29;20036;-93
2022/08/03 14:43:01;;;;;;;13.57;12.52;;;32.90;98.40;;;;;;4906302;29;20028;-93
2022/08/03 14:45:28;;;;;;;13.13;12.02;;;32.90;98.20;;;;;;4905389;29;20036;-94
2022/08/03 14:47:55;;;;;;;12.80;12.10;;;32.90;98.40;;;;;;4898133;29;20076;-90
2022/08/03 14:50:22;;;;;;;13.25;12.38;;;33.00;98.30;;;;;;4912942;29;20115;-92
2022/08/03 14:52:48;;;;;;;13.15;12.20;;;33.00;98.00;;;;;;4907654;29;20103;-92
2022/08/03 14:55:18;;;;;;;13.63;12.70;;;32.90;99.20;;;;;;4904512;29;20042;-92
2022/08/03 14:57:46;;;;;;;12.98;12.07;;;32.90;99.70;;;;;;4903393;29;20039;-92
2022/08/03 15:00:13;;;;;;;12.88;12.10;;;32.90;99.00;;;;;;4902418;29;20031;-92
2022/08/03 15:02:40;;;;;;;12.95;12.10;;;32.60;99.50;;;;;;4902670;29;20545;-93
2022/08/03 15:05:11;;;;;;;12.50;11.80;;;32.60;99.60;;;;;;4902601;29;20043;-90
2022/08/03 15:07:38;;;;;;;12.13;11.50;;;32.50;99.00;;;;;;4902532;29;20111;-93
2022/08/03 15:10:05;;;;;;;12.43;11.63;;;32.60;98.90;;;;;;4902047;29;20032;-91
2022/08/03 15:12:32;;;;;;;12.95;12.10;;;32.50;99.90;;;;;;4901961;29;20036;-91
2022/08/03 15:14:58;;;;;;;12.27;11.68;;;32.30;99.60;;;;;;4886401;29;20028;-92
2022/08/03 15:17:25;;;;;;;12.02;11.23;;;32.10;99.90;;;;;;4902098;29;20054;-90